CES0319 ZSQD-ZSSS
Flight info
| Callsign | CES0319 |
|---|---|
| Flight time | N/A |
| Altitude | 27600 |
| Route | WFG W103 YQG W142 DALIM A593 DPX A470 DALNU W166 OISKI W166 ZJ W167 SASAN R343 PK |
| Aircraft | B738/M-SDE2E3FGHIRWXY/LB1 |
Departure
| Time | 2026-04-21 12:20 |
|---|---|
| Airport | Qingdao Jiaodong International Airport (ZSQD) |
Arrival
| Time | N/A |
|---|---|
| Airport | Shanghai Hongqiao International Airport (ZSSS) |
| Time | Latitude | Longitude | Altitude | Speed | Heading |
|---|---|---|---|---|---|
| 2026-04-21 11:48 | 36.35838 | 120.08266 | 48 ft | 0 kts | 133° |
| 2026-04-21 12:07 | 36.35838 | 120.08265 | 48 ft | 1 kts | 133° |
| 2026-04-21 12:07 | 36.35848 | 120.08252 | 48 ft | 2 kts | 132° |
| 2026-04-21 12:07 | 36.35858 | 120.08238 | 48 ft | 2 kts | 133° |
| 2026-04-21 12:07 | 36.35869 | 120.08225 | 48 ft | 2 kts | 132° |
| 2026-04-21 12:08 | 36.35879 | 120.08211 | 48 ft | 2 kts | 133° |
| 2026-04-21 12:08 | 36.35891 | 120.08198 | 48 ft | 2 kts | 159° |
| 2026-04-21 12:08 | 36.35903 | 120.08195 | 48 ft | 2 kts | 183° |
| 2026-04-21 12:08 | 36.35918 | 120.08200 | 48 ft | 2 kts | 213° |
| 2026-04-21 12:09 | 36.35923 | 120.08205 | 48 ft | 1 kts | 227° |
| 2026-04-21 12:09 | 36.35926 | 120.08209 | 48 ft | 0 kts | 223° |
| 2026-04-21 12:11 | 36.35925 | 120.08209 | 48 ft | 0 kts | 223° |
| 2026-04-21 12:11 | 36.35921 | 120.08203 | 48 ft | 1 kts | 223° |
| 2026-04-21 12:12 | 36.35911 | 120.08192 | 48 ft | 2 kts | 223° |
| 2026-04-21 12:12 | 36.35899 | 120.08176 | 48 ft | 2 kts | 230° |
| 2026-04-21 12:12 | 36.35884 | 120.08154 | 47 ft | 3 kts | 232° |
| 2026-04-21 12:12 | 36.35874 | 120.08121 | 46 ft | 4 kts | 252° |
| 2026-04-21 12:13 | 36.35863 | 120.08078 | 46 ft | 5 kts | 252° |
| 2026-04-21 12:13 | 36.35850 | 120.08030 | 45 ft | 5 kts | 252° |
| 2026-04-21 12:13 | 36.35836 | 120.07978 | 44 ft | 6 kts | 251° |
| 2026-04-21 12:13 | 36.35826 | 120.07924 | 43 ft | 6 kts | 269° |
| 2026-04-21 12:14 | 36.35844 | 120.07881 | 42 ft | 6 kts | 323° |
| 2026-04-21 12:14 | 36.35885 | 120.07861 | 41 ft | 6 kts | 342° |
| 2026-04-21 12:14 | 36.35933 | 120.07842 | 40 ft | 7 kts | 342° |
| 2026-04-21 12:14 | 36.35990 | 120.07820 | 38 ft | 9 kts | 342° |
| 2026-04-21 12:15 | 36.36057 | 120.07794 | 36 ft | 10 kts | 342° |
| 2026-04-21 12:15 | 36.36123 | 120.07768 | 35 ft | 10 kts | 342° |
| 2026-04-21 12:15 | 36.36190 | 120.07743 | 34 ft | 9 kts | 342° |
| 2026-04-21 12:15 | 36.36256 | 120.07717 | 33 ft | 10 kts | 342° |
| 2026-04-21 12:16 | 36.36322 | 120.07691 | 32 ft | 10 kts | 342° |
| 2026-04-21 12:16 | 36.36389 | 120.07665 | 32 ft | 9 kts | 342° |
| 2026-04-21 12:16 | 36.36452 | 120.07640 | 31 ft | 8 kts | 342° |
| 2026-04-21 12:16 | 36.36507 | 120.07619 | 31 ft | 7 kts | 341° |
| 2026-04-21 12:17 | 36.36556 | 120.07598 | 31 ft | 6 kts | 341° |
| 2026-04-21 12:17 | 36.36601 | 120.07580 | 31 ft | 6 kts | 342° |
| 2026-04-21 12:17 | 36.36673 | 120.07552 | 31 ft | 15 kts | 343° |
| 2026-04-21 12:17 | 36.36784 | 120.07509 | 30 ft | 16 kts | 343° |
| 2026-04-21 12:18 | 36.36893 | 120.07468 | 30 ft | 15 kts | 341° |
| 2026-04-21 12:18 | 36.36992 | 120.07428 | 31 ft | 13 kts | 342° |
| 2026-04-21 12:18 | 36.37069 | 120.07385 | 32 ft | 10 kts | 305° |
| 2026-04-21 12:18 | 36.37065 | 120.07307 | 32 ft | 8 kts | 252° |
| 2026-04-21 12:19 | 36.37046 | 120.07242 | 32 ft | 7 kts | 239° |
| 2026-04-21 12:19 | 36.37011 | 120.07211 | 33 ft | 5 kts | 188° |
| 2026-04-21 12:19 | 36.36976 | 120.07217 | 33 ft | 6 kts | 163° |
| 2026-04-21 12:19 | 36.36763 | 120.07288 | 31 ft | 74 kts | 166° |
| 2026-04-21 12:20 | 36.36001 | 120.07593 | 41 ft | 154 kts | 163° |
| 2026-04-21 12:20 | 36.34882 | 120.08031 | 658 ft | 180 kts | 163° |
| 2026-04-21 12:20 | 36.33732 | 120.08466 | 1811 ft | 173 kts | 166° |
| 2026-04-21 12:20 | 36.32558 | 120.08916 | 2413 ft | 187 kts | 165° |
| 2026-04-21 12:21 | 36.31287 | 120.09425 | 2998 ft | 203 kts | 164° |
| 2026-04-21 12:21 | 36.29899 | 120.09975 | 3671 ft | 216 kts | 164° |
| 2026-04-21 12:21 | 36.28421 | 120.10551 | 4339 ft | 229 kts | 163° |
| 2026-04-21 12:21 | 36.26877 | 120.11152 | 5100 ft | 238 kts | 162° |
| 2026-04-21 12:22 | 36.25316 | 120.11764 | 6008 ft | 239 kts | 162° |
| 2026-04-21 12:22 | 36.23703 | 120.12397 | 6760 ft | 247 kts | 161° |
| 2026-04-21 12:22 | 36.22071 | 120.13037 | 7601 ft | 252 kts | 161° |
| 2026-04-21 12:22 | 36.20395 | 120.13693 | 8432 ft | 256 kts | 161° |
| 2026-04-21 12:23 | 36.18706 | 120.14354 | 9200 ft | 261 kts | 161° |
| 2026-04-21 12:23 | 36.16972 | 120.15032 | 9970 ft | 265 kts | 160° |
| 2026-04-21 12:23 | 36.15129 | 120.15463 | 10676 ft | 273 kts | 180° |
| 2026-04-21 12:23 | 36.13283 | 120.15041 | 11447 ft | 275 kts | 202° |
| 2026-04-21 12:24 | 36.11611 | 120.13943 | 12278 ft | 271 kts | 216° |
| 2026-04-21 12:24 | 36.10165 | 120.12503 | 13056 ft | 268 kts | 230° |
| 2026-04-21 12:24 | 36.09169 | 120.10625 | 13835 ft | 261 kts | 251° |
| 2026-04-21 12:24 | 36.08724 | 120.08515 | 14595 ft | 259 kts | 263° |
| 2026-04-21 12:25 | 36.08610 | 120.06277 | 15202 ft | 264 kts | 272° |
| 2026-04-21 12:25 | 36.09002 | 120.04076 | 15818 ft | 270 kts | 290° |
| 2026-04-21 12:25 | 36.10013 | 120.02069 | 16394 ft | 280 kts | 306° |
| 2026-04-21 12:25 | 36.11396 | 120.00378 | 16981 ft | 289 kts | 317° |
| 2026-04-21 12:26 | 36.13204 | 119.99161 | 17507 ft | 305 kts | 338° |
| 2026-04-21 12:26 | 36.15330 | 119.98769 | 18071 ft | 315 kts | 351° |
| 2026-04-21 12:26 | 36.17525 | 119.98655 | 18611 ft | 319 kts | 352° |
| 2026-04-21 12:26 | 36.19742 | 119.98555 | 19203 ft | 320 kts | 351° |
| 2026-04-21 12:27 | 36.21977 | 119.98424 | 19695 ft | 325 kts | 350° |
| 2026-04-21 12:27 | 36.24251 | 119.98269 | 20256 ft | 327 kts | 350° |
| 2026-04-21 12:27 | 36.26493 | 119.98076 | 20862 ft | 324 kts | 346° |
| 2026-04-21 12:27 | 36.28702 | 119.97578 | 21301 ft | 321 kts | 335° |